createdAt,value
2023-02-19T00:02:07.493Z,98093.27
2023-02-19T00:04:35.607Z,98098.37
2023-02-19T00:07:03.727Z,98098.45
2023-02-19T00:09:31.961Z,98102.51
2023-02-19T00:11:59.896Z,98101.98
2023-02-19T00:14:28.061Z,98103.79
2023-02-19T00:16:56.259Z,98100.52
2023-02-19T00:19:24.704Z,98102.27
2023-02-19T00:21:54.042Z,98100.20
2023-02-19T00:24:22.503Z,98097.61
2023-02-19T00:26:50.639Z,98097.98
2023-02-19T00:29:21.732Z,98098.70
2023-02-19T00:31:50.736Z,98099.90
2023-02-19T00:34:18.808Z,98101.92
2023-02-19T00:36:46.858Z,98102.94
2023-02-19T00:39:16.121Z,98103.30
2023-02-19T00:41:45.868Z,98097.41
2023-02-19T00:44:14.092Z,98097.84
2023-02-19T00:46:46.207Z,98098.66
2023-02-19T00:49:20.828Z,98096.50
2023-02-19T00:51:49.436Z,98094.90
2023-02-19T00:54:18.384Z,98094.61
2023-02-19T00:56:47.136Z,98095.13
2023-02-19T00:59:15.535Z,98096.33
2023-02-19T01:01:45.125Z,98096.33
2023-02-19T01:04:13.820Z,98093.41
2023-02-19T01:06:42.204Z,98092.34
2023-02-19T01:09:10.477Z,98088.08
2023-02-19T01:11:38.764Z,98092.09
2023-02-19T01:14:07.029Z,98085.09
2023-02-19T01:16:35.561Z,98079.67
2023-02-19T01:19:04.057Z,98076.02
2023-02-19T01:21:32.133Z,98073.20
2023-02-19T01:24:01.574Z,98073.95
2023-02-19T01:26:32.284Z,98070.34
2023-02-19T01:29:01.339Z,98072.07
2023-02-19T01:31:30.332Z,98067.66
2023-02-19T01:34:21.586Z,98066.75
2023-02-19T01:36:49.759Z,98062.05
2023-02-19T01:39:17.840Z,98053.08
2023-02-19T01:41:46.076Z,98055.02
2023-02-19T01:44:19.104Z,98048.34
2023-02-19T01:46:48.807Z,98045.55
2023-02-19T01:49:29.272Z,98046.87
2023-02-19T01:52:05.504Z,98044.02
2023-02-19T01:54:38.349Z,98041.29
2023-02-19T01:57:10.966Z,98036.39
2023-02-19T01:59:40.099Z,98035.34
2023-02-19T02:02:09.578Z,98029.63
2023-02-19T02:04:37.627Z,98030.95
2023-02-19T02:08:04.756Z,98026.20
2023-02-19T02:11:10.711Z,98028.08
2023-02-19T02:14:39.542Z,98022.77
2023-02-19T02:18:26.685Z,98021.27
2023-02-19T02:21:35.556Z,98018.11
2023-02-19T02:25:20.989Z,98015.45
2023-02-19T02:28:48.672Z,98011.58
2023-02-19T02:32:21.949Z,98001.45
2023-02-19T02:36:35.162Z,97999.63
2023-02-19T02:40:24.562Z,97996.67
2023-02-19T02:44:14.911Z,97993.02
2023-02-19T02:48:03.373Z,97997.73
2023-02-19T02:51:52.965Z,97993.14
2023-02-19T02:55:06.335Z,97993.75
2023-02-19T02:58:52.291Z,97986.11
2023-02-19T03:02:40.934Z,97981.41
2023-02-19T03:06:00.134Z,97977.59
2023-02-19T03:09:49.758Z,97978.40
2023-02-19T03:13:38.846Z,97980.52
2023-02-19T03:17:10.475Z,97981.24
2023-02-19T03:21:00.989Z,97983.48
2023-02-19T03:24:49.470Z,97990.33
2023-02-19T03:28:36.602Z,97986.63
2023-02-19T03:32:26.667Z,97983.01
2023-02-19T03:36:15.468Z,97985.91
2023-02-19T03:39:43.746Z,97990.27
2023-02-19T03:43:27.874Z,97986.90
2023-02-19T03:46:57.061Z,97982.07
2023-02-19T03:51:02.946Z,97973.87
2023-02-19T03:55:07.736Z,97970.56
2023-02-19T03:58:36.879Z,97972.52
2023-02-19T04:01:47.369Z,97969.77
2023-02-19T04:05:19.199Z,97965.00
2023-02-19T04:08:45.015Z,97955.08
2023-02-19T04:12:33.558Z,97957.61
2023-02-19T04:15:44.387Z,97958.38
2023-02-19T04:18:57.990Z,97959.90
2023-02-19T04:22:27.294Z,97957.33
2023-02-19T04:25:58.337Z,97957.13
2023-02-19T04:29:37.754Z,97956.44
2023-02-19T04:33:07.457Z,97949.71
2023-02-19T04:36:16.636Z,97948.83
2023-02-19T04:40:05.154Z,97938.99
2023-02-19T04:43:19.650Z,97937.42
2023-02-19T04:46:49.402Z,97930.11
2023-02-19T04:50:39.608Z,97912.30
2023-02-19T04:54:28.958Z,97905.30
2023-02-19T04:58:17.457Z,97899.42
2023-02-19T05:01:27.549Z,97893.64
2023-02-19T05:04:43.378Z,97891.58
2023-02-19T05:08:33.117Z,97885.34
2023-02-19T05:12:02.768Z,97880.90
2023-02-19T05:15:16.676Z,97877.73
2023-02-19T05:18:52.772Z,97879.30
2023-02-19T05:22:32.763Z,97883.23
2023-02-19T05:25:03.907Z,97871.94
2023-02-19T05:28:36.993Z,97873.63
2023-02-19T05:31:50.766Z,97883.79
2023-02-19T05:35:40.105Z,97891.13
2023-02-19T05:38:55.552Z,97880.91
2023-02-19T05:42:22.510Z,97879.86
2023-02-19T05:45:51.605Z,97883.38
2023-02-19T05:49:21.865Z,97875.33
2023-02-19T05:52:50.629Z,97876.78
2023-02-19T05:57:06.102Z,97867.69
2023-02-19T06:00:34.240Z,97870.71
2023-02-19T06:03:57.103Z,97868.91
2023-02-19T06:07:08.845Z,97861.33
2023-02-19T06:10:06.507Z,97864.23
2023-02-19T06:12:56.846Z,97872.73
2023-02-19T06:15:28.603Z,97870.37
2023-02-19T06:17:56.768Z,97879.80
2023-02-19T06:20:26.303Z,97875.55
2023-02-19T06:22:54.524Z,97879.00
2023-02-19T06:25:22.448Z,97875.35
2023-02-19T06:27:50.429Z,97880.79
2023-02-19T06:31:18.673Z,97877.44
2023-02-19T06:34:48.415Z,97873.98
2023-02-19T06:37:58.004Z,97867.36
2023-02-19T06:41:08.284Z,97866.08
2023-02-19T06:44:40.876Z,97861.07
2023-02-19T06:47:51.141Z,97867.91
2023-02-19T06:51:40.280Z,97868.88
2023-02-19T06:55:10.009Z,97866.86
2023-02-19T06:58:39.681Z,97868.60
2023-02-19T07:02:10.709Z,97862.19
2023-02-19T07:05:21.390Z,97866.23
2023-02-19T07:09:10.689Z,97863.48
2023-02-19T07:12:48.857Z,97858.55
2023-02-19T07:15:52.099Z,97856.38
2023-02-19T07:18:36.203Z,97857.77
2023-02-19T07:21:10.259Z,97853.65
2023-02-19T07:23:39.519Z,97858.58
2023-02-19T07:26:44.163Z,97858.17
2023-02-19T07:30:24.717Z,97844.55
2023-02-19T07:34:12.241Z,97852.98
2023-02-19T07:37:35.866Z,97853.08
2023-02-19T07:40:55.076Z,97846.36
2023-02-19T07:43:45.280Z,97841.71
2023-02-19T07:46:14.539Z,97841.32
2023-02-19T07:48:51.214Z,97841.11
2023-02-19T07:51:44.653Z,97838.75
2023-02-19T07:54:52.360Z,97838.79
2023-02-19T07:58:01.600Z,97835.16
2023-02-19T08:00:33.238Z,97829.79
2023-02-19T08:03:50.624Z,97833.25
2023-02-19T08:07:07.383Z,97832.44
2023-02-19T08:10:36.733Z,97831.80
2023-02-19T08:14:06.196Z,97838.80
2023-02-19T08:17:58.609Z,97843.07
2023-02-19T08:21:45.055Z,97843.60
2023-02-19T08:25:34.059Z,97844.45
2023-02-19T08:28:02.297Z,97844.63
2023-02-19T08:30:32.369Z,97851.16
2023-02-19T08:33:23.211Z,97852.41
2023-02-19T08:36:12.731Z,97856.76
2023-02-19T08:39:50.277Z,97851.48
2023-02-19T08:42:19.028Z,97852.89
2023-02-19T08:45:28.813Z,97848.41
2023-02-19T08:48:46.037Z,97847.02
2023-02-19T08:52:15.235Z,97843.27
2023-02-19T08:55:45.681Z,97844.81
2023-02-19T08:59:33.041Z,97847.18
2023-02-19T09:03:21.779Z,97849.94
2023-02-19T09:07:12.058Z,97859.08
2023-02-19T09:10:42.171Z,97854.94
2023-02-19T09:13:51.679Z,97853.70
2023-02-19T09:17:22.143Z,97862.57
2023-02-19T09:20:51.883Z,97862.04
2023-02-19T09:23:36.313Z,97867.23
2023-02-19T09:26:08.676Z,97874.65
2023-02-19T09:28:38.334Z,97874.27
2023-02-19T09:31:11.888Z,97879.64
2023-02-19T09:33:44.774Z,97882.48
2023-02-19T09:36:33.649Z,97883.54
2023-02-19T09:39:02.205Z,97887.42
2023-02-19T09:41:32.188Z,97894.63
2023-02-19T09:44:02.752Z,97890.58
2023-02-19T09:46:38.689Z,97895.42
2023-02-19T09:49:14.794Z,97903.80
2023-02-19T09:52:10.489Z,97899.77
2023-02-19T09:54:40.125Z,97908.15
2023-02-19T09:57:16.614Z,97910.59
2023-02-19T09:59:49.190Z,97916.16
2023-02-19T10:02:18.954Z,97924.75
2023-02-19T10:04:51.388Z,97937.05
2023-02-19T10:07:23.544Z,97941.85
2023-02-19T10:09:57.618Z,97946.02
2023-02-19T10:12:29.475Z,97953.48
2023-02-19T10:15:33.341Z,97956.36
2023-02-19T10:18:30.973Z,97962.68
2023-02-19T10:20:59.293Z,97953.55
2023-02-19T10:23:27.763Z,97960.79
2023-02-19T10:25:58.111Z,97962.64
2023-02-19T10:28:30.243Z,97966.94
2023-02-19T10:31:01.147Z,97972.54
2023-02-19T10:33:29.709Z,97973.85
2023-02-19T10:36:07.384Z,97977.48
2023-02-19T10:38:45.291Z,97980.45
2023-02-19T10:41:22.972Z,97984.27
2023-02-19T10:44:00.416Z,97981.04
2023-02-19T10:46:33.220Z,97971.54
2023-02-19T10:49:15.639Z,97978.16
2023-02-19T10:51:44.172Z,97989.63
2023-02-19T10:54:24.654Z,97996.66
2023-02-19T10:56:52.800Z,98002.91
2023-02-19T10:59:28.912Z,98003.17
2023-02-19T11:02:17.548Z,98019.33
2023-02-19T11:05:07.687Z,98022.85
2023-02-19T11:07:45.149Z,98024.33
2023-02-19T11:10:42.463Z,98031.34
2023-02-19T11:13:17.125Z,98038.16
2023-02-19T11:15:53.256Z,98039.02
2023-02-19T11:18:31.318Z,98043.92
2023-02-19T11:21:02.868Z,98043.98
2023-02-19T11:23:37.300Z,98045.51
2023-02-19T11:26:16.552Z,98046.77
2023-02-19T11:28:45.092Z,98051.25
2023-02-19T11:31:19.513Z,98052.58
2023-02-19T11:33:50.800Z,98057.02
2023-02-19T11:36:26.807Z,98066.27
2023-02-19T11:38:56.640Z,98061.69
2023-02-19T11:41:57.359Z,98064.67
2023-02-19T11:44:39.927Z,98072.79
2023-02-19T11:47:29.385Z,98073.52
2023-02-19T11:50:12.818Z,98078.04
2023-02-19T11:52:52.702Z,98083.54
2023-02-19T11:55:39.152Z,98090.13
2023-02-19T11:59:00.989Z,98100.69
2023-02-19T12:01:38.863Z,98108.46
2023-02-19T12:04:25.650Z,98110.63
2023-02-19T12:07:12.527Z,98095.30
2023-02-19T12:10:25.473Z,98121.05
2023-02-19T12:13:38.816Z,98125.23
2023-02-19T12:16:28.710Z,98130.50
2023-02-19T12:19:24.154Z,98133.26
2023-02-19T12:22:33.521Z,98133.41
2023-02-19T12:25:40.275Z,98139.28
2023-02-19T12:28:31.577Z,98139.61
2023-02-19T12:31:35.079Z,98147.54
2023-02-19T12:34:24.922Z,98147.05
2023-02-19T12:37:23.163Z,98148.77
2023-02-19T12:41:03.477Z,98154.87
2023-02-19T12:44:56.479Z,98154.15
2023-02-19T12:48:32.316Z,98159.71
2023-02-19T12:52:27.678Z,98161.86
2023-02-19T12:56:56.528Z,98157.88
2023-02-19T13:00:50.461Z,98172.25
2023-02-19T13:04:53.609Z,98180.83
2023-02-19T13:09:16.744Z,98184.12
2023-02-19T13:12:49.704Z,98190.02
2023-02-19T13:16:58.777Z,98195.67
2023-02-19T13:21:03.308Z,98208.13
2023-02-19T13:25:15.077Z,98216.56
2023-02-19T13:29:06.287Z,98222.89
2023-02-19T13:32:22.075Z,98224.17
2023-02-19T13:36:00.311Z,98222.70
2023-02-19T13:38:28.770Z,98233.67
2023-02-19T13:41:00.398Z,98233.41
2023-02-19T13:43:34.985Z,98242.33
2023-02-19T13:46:08.328Z,98244.68
2023-02-19T13:48:39.528Z,98246.55
2023-02-19T13:51:17.140Z,98254.98
2023-02-19T13:53:45.150Z,98253.92
2023-02-19T13:56:31.700Z,98253.95
2023-02-19T13:59:31.467Z,98256.42
2023-02-19T14:03:05.265Z,98256.87
2023-02-19T14:07:01.553Z,98256.81
2023-02-19T14:10:51.617Z,98260.67
2023-02-19T14:13:47.885Z,98274.01
2023-02-19T14:17:40.781Z,98280.09
2023-02-19T14:20:09.107Z,98283.93
2023-02-19T14:22:46.452Z,98291.26
2023-02-19T14:26:14.569Z,98297.71
2023-02-19T14:28:47.261Z,98311.48
2023-02-19T14:31:32.370Z,98313.92
2023-02-19T14:34:22.989Z,98317.75
2023-02-19T14:37:41.406Z,98317.33
2023-02-19T14:41:31.049Z,98316.70
2023-02-19T14:45:21.222Z,98321.93
2023-02-19T14:49:38.841Z,98326.33
2023-02-19T14:53:30.413Z,98321.86
2023-02-19T14:57:07.884Z,98323.98
2023-02-19T15:01:05.583Z,98332.24
2023-02-19T15:03:56.627Z,98331.23
2023-02-19T15:06:27.327Z,98333.25
2023-02-19T15:09:55.784Z,98338.55
2023-02-19T15:12:32.572Z,98342.14
2023-02-19T15:15:04.995Z,98336.88
2023-02-19T15:17:38.084Z,98348.89
2023-02-19T15:20:11.617Z,98353.48
2023-02-19T15:22:41.664Z,98361.77
2023-02-19T15:25:26.534Z,98372.23
2023-02-19T15:27:54.606Z,98373.82
2023-02-19T15:30:28.555Z,98376.90
2023-02-19T15:33:00.703Z,98373.16
2023-02-19T15:35:32.740Z,98376.25
2023-02-19T15:38:01.016Z,98373.98
2023-02-19T15:41:29.487Z,98379.62
2023-02-19T15:45:41.576Z,98386.16
2023-02-19T15:48:22.910Z,98406.77
2023-02-19T15:51:51.235Z,98410.73
2023-02-19T15:55:49.886Z,98419.69
2023-02-19T15:59:46.912Z,98427.04
2023-02-19T16:03:15.673Z,98430.77
2023-02-19T16:07:07.688Z,98441.61
2023-02-19T16:10:21.769Z,98453.92
2023-02-19T16:13:36.187Z,98460.41
2023-02-19T16:16:32.680Z,98465.02
2023-02-19T16:19:00.766Z,98471.02
2023-02-19T16:22:28.877Z,98462.06
2023-02-19T16:26:08.876Z,98476.73
2023-02-19T16:29:58.793Z,98478.95
2023-02-19T16:34:02.141Z,98481.95
2023-02-19T16:37:51.393Z,98498.06
2023-02-19T16:41:51.295Z,98509.33
2023-02-19T16:45:42.380Z,98520.21
2023-02-19T16:48:31.813Z,98532.02
2023-02-19T16:51:00.100Z,98536.90
2023-02-19T16:54:28.921Z,98544.23
2023-02-19T16:58:19.051Z,98554.34
2023-02-19T17:00:47.487Z,98562.55
2023-02-19T17:04:16.268Z,98567.00
2023-02-19T17:08:06.930Z,98566.87
2023-02-19T17:10:56.292Z,98572.80
2023-02-19T17:14:25.093Z,98571.61
2023-02-19T17:18:15.121Z,98576.91
2023-02-19T17:22:14.669Z,98581.20
2023-02-19T17:26:04.376Z,98578.69
2023-02-19T17:28:54.035Z,98583.13
2023-02-19T17:31:22.369Z,98590.84
2023-02-19T17:33:51.313Z,98594.71
2023-02-19T17:36:30.300Z,98599.13
2023-02-19T17:45:21.981Z,98624.73
2023-02-19T17:50:05.846Z,98637.92
2023-02-19T17:52:49.259Z,98636.05
2023-02-19T17:55:48.271Z,98636.77
2023-02-19T17:58:16.372Z,98642.46
2023-02-19T18:00:44.753Z,98642.61
2023-02-19T18:03:13.077Z,98641.17
2023-02-19T18:05:41.144Z,98641.13
2023-02-19T18:08:09.238Z,98650.09
2023-02-19T18:10:37.593Z,98651.61
2023-02-19T18:13:05.785Z,98659.69
2023-02-19T18:15:33.951Z,98667.11
2023-02-19T18:18:02.410Z,98668.45
2023-02-19T18:20:31.823Z,98675.03
2023-02-19T18:23:00.273Z,98679.55
2023-02-19T18:25:28.550Z,98678.86
2023-02-19T18:27:57.969Z,98685.52
2023-02-19T18:30:26.297Z,98688.54
2023-02-19T18:32:54.243Z,98692.25
2023-02-19T18:35:22.267Z,98693.36
2023-02-19T18:37:54.569Z,98689.64
2023-02-19T18:40:26.021Z,98688.58
2023-02-19T18:42:54.600Z,98691.12
2023-02-19T18:45:22.980Z,98692.28
2023-02-19T18:47:51.306Z,98699.48
2023-02-19T18:50:20.401Z,98697.74
2023-02-19T18:52:48.568Z,98700.62
2023-02-19T18:55:16.616Z,98700.27
2023-02-19T18:57:45.903Z,98710.48
2023-02-19T19:00:18.598Z,98711.20
2023-02-19T19:02:49.771Z,98715.73
2023-02-19T19:05:23.701Z,98716.98
2023-02-19T19:07:54.170Z,98716.86
2023-02-19T19:10:22.958Z,98720.92
2023-02-19T19:12:51.879Z,98726.71
2023-02-19T19:15:21.099Z,98733.18
2023-02-19T19:17:50.246Z,98731.86
2023-02-19T19:20:20.523Z,98727.45
2023-02-19T19:22:50.675Z,98730.45
2023-02-19T19:25:19.957Z,98738.83
2023-02-19T19:27:50.378Z,98743.88
2023-02-19T19:30:20.161Z,98740.45
2023-02-19T19:32:51.449Z,98746.01
2023-02-19T19:35:21.444Z,98746.04
2023-02-19T19:37:50.071Z,98749.89
2023-02-19T19:40:18.902Z,98750.43
2023-02-19T19:42:47.053Z,98757.73
2023-02-19T19:45:15.959Z,98762.81
2023-02-19T19:47:44.118Z,98762.13
2023-02-19T19:50:14.698Z,98754.05
2023-02-19T19:52:42.734Z,98765.45
2023-02-19T19:55:10.948Z,98765.64
2023-02-19T19:57:40.846Z,98766.88
2023-02-19T20:00:12.895Z,98769.85
2023-02-19T20:02:41.219Z,98769.36
2023-02-19T20:05:09.878Z,98771.11
2023-02-19T20:07:37.994Z,98770.59
2023-02-19T20:10:08.473Z,98767.48
2023-02-19T20:12:36.624Z,98768.01
2023-02-19T20:15:04.964Z,98766.46
2023-02-19T20:17:33.091Z,98762.65
2023-02-19T20:20:01.480Z,98763.33
2023-02-19T20:22:29.702Z,98773.33
2023-02-19T20:24:58.129Z,98780.05
2023-02-19T20:27:26.252Z,98775.69
2023-02-19T20:29:54.347Z,98778.90
2023-02-19T20:32:22.565Z,98780.91
2023-02-19T20:34:51.352Z,98786.73
2023-02-19T20:37:19.500Z,98783.59
2023-02-19T20:39:47.557Z,98785.98
2023-02-19T20:42:17.069Z,98793.22
2023-02-19T20:44:45.462Z,98794.27
2023-02-19T20:47:13.643Z,98800.30
2023-02-19T20:49:46.344Z,98799.27
2023-02-19T20:52:16.866Z,98807.95
2023-02-19T20:54:45.096Z,98810.23
2023-02-19T20:57:14.130Z,98812.33
2023-02-19T20:59:44.387Z,98814.94
2023-02-19T21:02:17.855Z,98811.13
2023-02-19T21:04:46.196Z,98813.74
2023-02-19T21:07:15.235Z,98830.14
2023-02-19T21:09:43.370Z,98838.63
2023-02-19T21:12:52.629Z,98838.67
2023-02-19T21:15:20.664Z,98840.55
2023-02-19T21:17:49.995Z,98844.71
2023-02-19T21:20:18.265Z,98853.02
2023-02-19T21:22:46.388Z,98856.67
2023-02-19T21:26:16.257Z,98861.39
2023-02-19T21:29:45.004Z,98869.19
2023-02-19T21:32:34.852Z,98868.51
2023-02-19T21:35:03.069Z,98865.25
2023-02-19T21:37:31.349Z,98869.77
2023-02-19T21:40:00.620Z,98872.58
2023-02-19T21:42:28.818Z,98873.98
2023-02-19T21:44:56.766Z,98872.11
2023-02-19T21:47:24.874Z,98872.98
2023-02-19T21:49:53.030Z,98873.02
2023-02-19T21:52:23.555Z,98873.04
2023-02-19T21:54:51.701Z,98875.15
2023-02-19T21:57:19.697Z,98878.10
2023-02-19T21:59:47.793Z,98878.45
2023-02-19T22:02:19.891Z,98882.44
2023-02-19T22:04:53.808Z,98886.94
2023-02-19T22:07:22.275Z,98885.55
2023-02-19T22:11:31.863Z,98887.27
2023-02-19T22:15:22.384Z,98882.45
2023-02-19T22:19:30.882Z,98884.01
2023-02-19T22:22:20.913Z,98901.09
2023-02-19T22:24:49.052Z,98901.59
2023-02-19T22:27:17.150Z,98899.38
2023-02-19T22:29:45.363Z,98905.77
2023-02-19T22:32:53.911Z,98904.91
2023-02-19T22:35:22.317Z,98910.30
2023-02-19T22:37:50.367Z,98913.75
2023-02-19T22:40:18.511Z,98917.05
2023-02-19T22:43:47.146Z,98918.80
2023-02-19T22:47:37.650Z,98917.30
2023-02-19T22:51:31.062Z,98918.52
2023-02-19T22:55:21.060Z,98924.42
2023-02-19T22:59:11.108Z,98928.22
2023-02-19T23:01:41.752Z,98936.69
2023-02-19T23:04:52.223Z,98935.84
2023-02-19T23:08:05.803Z,98945.18
2023-02-19T23:10:33.802Z,98948.29
2023-02-19T23:13:46.921Z,98951.89
2023-02-19T23:16:43.194Z,98952.58
2023-02-19T23:19:14.700Z,98954.80
2023-02-19T23:21:44.763Z,98949.65
2023-02-19T23:25:13.201Z,98956.70
2023-02-19T23:28:12.566Z,98955.83
2023-02-19T23:30:40.802Z,98958.06
2023-02-19T23:34:31.181Z,98959.42
2023-02-19T23:37:00.364Z,98955.44
2023-02-19T23:39:29.312Z,98958.20
2023-02-19T23:41:58.028Z,98959.39
2023-02-19T23:45:10.488Z,98963.02
2023-02-19T23:48:40.533Z,98956.95
2023-02-19T23:51:09.586Z,98950.77
2023-02-19T23:53:37.732Z,98949.73
2023-02-19T23:56:06.348Z,98945.58
2023-02-19T23:58:34.411Z,98945.58
